sensor_id;sensor_type;location;lat;lon;timestamp;temperature;humidity
61412;DHT22;47278;49.732;7.690;2022-09-12T00:02:15;11.90;99.90
61412;DHT22;47278;49.732;7.690;2022-09-12T00:04:40;11.90;99.90
61412;DHT22;47278;49.732;7.690;2022-09-12T00:07:06;11.90;99.90
61412;DHT22;47278;49.732;7.690;2022-09-12T00:09:32;12.00;99.90
61412;DHT22;47278;49.732;7.690;2022-09-12T00:11:57;12.00;99.90
61412;DHT22;47278;49.732;7.690;2022-09-12T00:14:23;12.10;99.90
61412;DHT22;47278;49.732;7.690;2022-09-12T00:16:48;12.10;99.90
61412;DHT22;47278;49.732;7.690;2022-09-12T00:19:14;12.10;99.90
61412;DHT22;47278;49.732;7.690;2022-09-12T00:21:39;12.10;99.90
61412;DHT22;47278;49.732;7.690;2022-09-12T00:24:06;12.20;99.90
61412;DHT22;47278;49.732;7.690;2022-09-12T00:26:31;12.10;99.90
61412;DHT22;47278;49.732;7.690;2022-09-12T00:28:57;12.10;99.90
61412;DHT22;47278;49.732;7.690;2022-09-12T00:31:23;12.20;99.90
61412;DHT22;47278;49.732;7.690;2022-09-12T00:33:49;12.20;99.90
61412;DHT22;47278;49.732;7.690;2022-09-12T00:36:16;12.20;99.90
61412;DHT22;47278;49.732;7.690;2022-09-12T00:38:42;12.20;99.90
61412;DHT22;47278;49.732;7.690;2022-09-12T00:41:16;12.20;99.90
61412;DHT22;47278;49.732;7.690;2022-09-12T00:43:44;12.20;99.90
61412;DHT22;47278;49.732;7.690;2022-09-12T00:48:40;12.30;99.90
61412;DHT22;47278;49.732;7.690;2022-09-12T00:51:06;12.20;99.90
61412;DHT22;47278;49.732;7.690;2022-09-12T00:53:32;12.20;99.90
61412;DHT22;47278;49.732;7.690;2022-09-12T00:55:58;12.30;99.90
61412;DHT22;47278;49.732;7.690;2022-09-12T00:58:24;12.30;99.90
61412;DHT22;47278;49.732;7.690;2022-09-12T01:00:52;12.30;99.90
61412;DHT22;47278;49.732;7.690;2022-09-12T01:03:18;12.30;99.90
61412;DHT22;47278;49.732;7.690;2022-09-12T01:08:20;12.10;99.90
61412;DHT22;47278;49.732;7.690;2022-09-12T01:10:46;12.20;99.90
61412;DHT22;47278;49.732;7.690;2022-09-12T01:13:12;12.10;99.90
61412;DHT22;47278;49.732;7.690;2022-09-12T01:15:38;12.00;99.90
61412;DHT22;47278;49.732;7.690;2022-09-12T01:18:23;11.90;99.90
61412;DHT22;47278;49.732;7.690;2022-09-12T01:38:26;11.90;99.90
61412;DHT22;47278;49.732;7.690;2022-09-12T01:48:32;12.10;99.90
61412;DHT22;47278;49.732;7.690;2022-09-12T01:51:03;12.10;99.90
61412;DHT22;47278;49.732;7.690;2022-09-12T01:53:35;12.10;99.90
61412;DHT22;47278;49.732;7.690;2022-09-12T01:58:29;12.10;99.90
61412;DHT22;47278;49.732;7.690;2022-09-12T02:01:03;11.90;99.90
61412;DHT22;47278;49.732;7.690;2022-09-12T02:03:38;11.90;99.90
61412;DHT22;47278;49.732;7.690;2022-09-12T02:06:06;11.90;99.90
61412;DHT22;47278;49.732;7.690;2022-09-12T02:08:37;11.90;99.90
61412;DHT22;47278;49.732;7.690;2022-09-12T02:11:08;12.00;99.90
61412;DHT22;47278;49.732;7.690;2022-09-12T02:13:42;12.00;99.90
61412;DHT22;47278;49.732;7.690;2022-09-12T02:16:09;11.70;99.90
61412;DHT22;47278;49.732;7.690;2022-09-12T02:18:37;12.10;99.90
61412;DHT22;47278;49.732;7.690;2022-09-12T02:21:04;12.10;99.90
61412;DHT22;47278;49.732;7.690;2022-09-12T02:23:30;12.00;99.90
61412;DHT22;47278;49.732;7.690;2022-09-12T02:25:57;12.00;99.90
61412;DHT22;47278;49.732;7.690;2022-09-12T02:28:25;12.00;99.90
61412;DHT22;47278;49.732;7.690;2022-09-12T02:30:58;12.00;99.90
61412;DHT22;47278;49.732;7.690;2022-09-12T02:33:36;12.00;99.90
61412;DHT22;47278;49.732;7.690;2022-09-12T02:38:48;12.00;99.90
61412;DHT22;47278;49.732;7.690;2022-09-12T02:41:15;12.00;99.90
61412;DHT22;47278;49.732;7.690;2022-09-12T02:43:41;11.90;99.90
61412;DHT22;47278;49.732;7.690;2022-09-12T02:46:08;11.90;99.90
61412;DHT22;47278;49.732;7.690;2022-09-12T02:48:35;12.00;99.90
61412;DHT22;47278;49.732;7.690;2022-09-12T02:51:02;12.00;99.90
61412;DHT22;47278;49.732;7.690;2022-09-12T02:53:28;12.00;99.90
61412;DHT22;47278;49.732;7.690;2022-09-12T02:55:53;12.00;99.90
61412;DHT22;47278;49.732;7.690;2022-09-12T02:58:20;12.00;99.90
61412;DHT22;47278;49.732;7.690;2022-09-12T03:03:20;14.30;99.90
61412;DHT22;47278;49.732;7.690;2022-09-12T03:05:57;11.80;99.90
61412;DHT22;47278;49.732;7.690;2022-09-12T03:11:08;11.80;99.90
61412;DHT22;47278;49.732;7.690;2022-09-12T03:13:44;11.80;99.90
61412;DHT22;47278;49.732;7.690;2022-09-12T03:16:26;11.80;99.90
61412;DHT22;47278;49.732;7.690;2022-09-12T03:24:04;11.70;99.90
61412;DHT22;47278;49.732;7.690;2022-09-12T03:26:35;11.70;99.90
61412;DHT22;47278;49.732;7.690;2022-09-12T03:29:02;11.70;99.90
61412;DHT22;47278;49.732;7.690;2022-09-12T03:31:29;11.70;99.90
61412;DHT22;47278;49.732;7.690;2022-09-12T03:33:56;11.70;99.90
61412;DHT22;47278;49.732;7.690;2022-09-12T03:36:22;11.70;99.90
61412;DHT22;47278;49.732;7.690;2022-09-12T03:38:48;11.60;99.90
61412;DHT22;47278;49.732;7.690;2022-09-12T03:41:14;11.70;99.90
61412;DHT22;47278;49.732;7.690;2022-09-12T03:43:39;11.70;99.90
61412;DHT22;47278;49.732;7.690;2022-09-12T03:46:05;11.60;99.90
61412;DHT22;47278;49.732;7.690;2022-09-12T03:48:31;11.60;99.90
61412;DHT22;47278;49.732;7.690;2022-09-12T03:51:00;11.60;99.90
61412;DHT22;47278;49.732;7.690;2022-09-12T03:53:26;11.60;99.90
61412;DHT22;47278;49.732;7.690;2022-09-12T03:55:51;11.60;99.90
61412;DHT22;47278;49.732;7.690;2022-09-12T03:58:17;11.60;99.90
61412;DHT22;47278;49.732;7.690;2022-09-12T04:00:42;11.60;99.90
61412;DHT22;47278;49.732;7.690;2022-09-12T04:03:08;11.60;99.90
61412;DHT22;47278;49.732;7.690;2022-09-12T04:05:34;11.50;99.90
61412;DHT22;47278;49.732;7.690;2022-09-12T04:08:00;11.50;99.90
61412;DHT22;47278;49.732;7.690;2022-09-12T04:10:25;11.50;99.90
61412;DHT22;47278;49.732;7.690;2022-09-12T04:12:51;11.60;99.90
61412;DHT22;47278;49.732;7.690;2022-09-12T04:15:16;11.50;99.90
61412;DHT22;47278;49.732;7.690;2022-09-12T04:17:42;11.50;99.90
61412;DHT22;47278;49.732;7.690;2022-09-12T04:20:07;11.50;99.90
61412;DHT22;47278;49.732;7.690;2022-09-12T04:22:33;11.50;99.90
61412;DHT22;47278;49.732;7.690;2022-09-12T04:24:59;11.30;99.90
61412;DHT22;47278;49.732;7.690;2022-09-12T04:27:24;11.50;99.90
61412;DHT22;47278;49.732;7.690;2022-09-12T04:29:50;11.50;99.90
61412;DHT22;47278;49.732;7.690;2022-09-12T04:32:15;11.50;99.90
61412;DHT22;47278;49.732;7.690;2022-09-12T04:34:41;11.30;99.90
61412;DHT22;47278;49.732;7.690;2022-09-12T04:37:07;11.30;99.90
61412;DHT22;47278;49.732;7.690;2022-09-12T04:39:32;11.30;99.90
61412;DHT22;47278;49.732;7.690;2022-09-12T04:41:58;11.30;99.90
61412;DHT22;47278;49.732;7.690;2022-09-12T04:44:24;11.40;99.90
61412;DHT22;47278;49.732;7.690;2022-09-12T04:46:49;11.40;99.90
61412;DHT22;47278;49.732;7.690;2022-09-12T04:49:15;11.40;99.90
61412;DHT22;47278;49.732;7.690;2022-09-12T04:51:41;11.30;99.90
61412;DHT22;47278;49.732;7.690;2022-09-12T04:54:09;11.30;99.90
61412;DHT22;47278;49.732;7.690;2022-09-12T04:56:36;11.20;99.90
61412;DHT22;47278;49.732;7.690;2022-09-12T04:59:02;12.60;99.90
61412;DHT22;47278;49.732;7.690;2022-09-12T05:01:28;11.10;99.90
61412;DHT22;47278;49.732;7.690;2022-09-12T05:03:54;11.20;99.90
61412;DHT22;47278;49.732;7.690;2022-09-12T05:06:21;11.20;99.90
61412;DHT22;47278;49.732;7.690;2022-09-12T05:08:48;11.10;99.90
61412;DHT22;47278;49.732;7.690;2022-09-12T05:11:18;11.10;99.90
61412;DHT22;47278;49.732;7.690;2022-09-12T05:13:44;11.20;99.90
61412;DHT22;47278;49.732;7.690;2022-09-12T05:16:10;11.20;99.90
61412;DHT22;47278;49.732;7.690;2022-09-12T05:18:36;11.20;99.90
61412;DHT22;47278;49.732;7.690;2022-09-12T05:21:03;11.30;99.90
61412;DHT22;47278;49.732;7.690;2022-09-12T05:23:30;11.20;99.90
61412;DHT22;47278;49.732;7.690;2022-09-12T05:25:56;11.10;99.90
61412;DHT22;47278;49.732;7.690;2022-09-12T05:28:22;11.30;99.90
61412;DHT22;47278;49.732;7.690;2022-09-12T05:30:48;11.30;99.90
61412;DHT22;47278;49.732;7.690;2022-09-12T05:33:23;11.30;99.90
61412;DHT22;47278;49.732;7.690;2022-09-12T05:35:52;10.10;99.90
61412;DHT22;47278;49.732;7.690;2022-09-12T05:38:17;11.30;99.90
61412;DHT22;47278;49.732;7.690;2022-09-12T05:40:43;11.30;99.90
61412;DHT22;47278;49.732;7.690;2022-09-12T05:43:08;11.20;99.90
61412;DHT22;47278;49.732;7.690;2022-09-12T05:45:37;11.30;99.90
61412;DHT22;47278;49.732;7.690;2022-09-12T05:48:02;11.30;99.90
61412;DHT22;47278;49.732;7.690;2022-09-12T05:50:28;11.40;99.90
61412;DHT22;47278;49.732;7.690;2022-09-12T05:52:53;11.40;99.90
61412;DHT22;47278;49.732;7.690;2022-09-12T05:55:19;11.30;99.90
61412;DHT22;47278;49.732;7.690;2022-09-12T05:57:45;11.40;99.90
61412;DHT22;47278;49.732;7.690;2022-09-12T06:00:11;11.20;99.90
61412;DHT22;47278;49.732;7.690;2022-09-12T06:02:37;11.30;99.90
61412;DHT22;47278;49.732;7.690;2022-09-12T06:05:03;11.30;99.90
61412;DHT22;47278;49.732;7.690;2022-09-12T06:07:28;11.20;99.90
61412;DHT22;47278;49.732;7.690;2022-09-12T06:09:54;11.20;99.90
61412;DHT22;47278;49.732;7.690;2022-09-12T06:12:19;11.10;99.90
61412;DHT22;47278;49.732;7.690;2022-09-12T06:14:45;11.20;99.90
61412;DHT22;47278;49.732;7.690;2022-09-12T06:17:10;11.30;99.90
61412;DHT22;47278;49.732;7.690;2022-09-12T06:19:36;11.60;99.90
61412;DHT22;47278;49.732;7.690;2022-09-12T06:22:02;11.60;99.90
61412;DHT22;47278;49.732;7.690;2022-09-12T06:24:27;11.50;99.90
61412;DHT22;47278;49.732;7.690;2022-09-12T06:26:53;11.60;99.90
61412;DHT22;47278;49.732;7.690;2022-09-12T06:29:18;11.60;99.90
61412;DHT22;47278;49.732;7.690;2022-09-12T06:31:44;11.70;99.90
61412;DHT22;47278;49.732;7.690;2022-09-12T06:34:11;11.80;99.90
61412;DHT22;47278;49.732;7.690;2022-09-12T06:36:41;11.80;99.90
61412;DHT22;47278;49.732;7.690;2022-09-12T06:39:09;11.90;99.90
61412;DHT22;47278;49.732;7.690;2022-09-12T06:41:35;11.90;99.90
61412;DHT22;47278;49.732;7.690;2022-09-12T06:44:01;12.00;99.90
61412;DHT22;47278;49.732;7.690;2022-09-12T06:46:27;12.00;99.90
61412;DHT22;47278;49.732;7.690;2022-09-12T06:48:56;12.00;99.90
61412;DHT22;47278;49.732;7.690;2022-09-12T06:51:23;12.00;99.90
61412;DHT22;47278;49.732;7.690;2022-09-12T06:53:50;12.10;99.90
61412;DHT22;47278;49.732;7.690;2022-09-12T06:56:19;12.10;99.90
61412;DHT22;47278;49.732;7.690;2022-09-12T06:58:46;12.30;99.90
61412;DHT22;47278;49.732;7.690;2022-09-12T07:01:15;12.20;99.90
61412;DHT22;47278;49.732;7.690;2022-09-12T07:03:41;12.50;99.90
61412;DHT22;47278;49.732;7.690;2022-09-12T07:06:08;12.50;99.90
61412;DHT22;47278;49.732;7.690;2022-09-12T07:08:35;12.40;99.90
61412;DHT22;47278;49.732;7.690;2022-09-12T07:13:54;12.50;99.90
61412;DHT22;47278;49.732;7.690;2022-09-12T07:16:20;12.70;99.90
61412;DHT22;47278;49.732;7.690;2022-09-12T07:18:53;12.80;99.90
61412;DHT22;47278;49.732;7.690;2022-09-12T07:21:19;12.80;99.90
61412;DHT22;47278;49.732;7.690;2022-09-12T07:23:45;12.90;99.90
61412;DHT22;47278;49.732;7.690;2022-09-12T07:26:11;12.00;99.90
61412;DHT22;47278;49.732;7.690;2022-09-12T07:28:37;13.10;99.90
61412;DHT22;47278;49.732;7.690;2022-09-12T07:33:33;13.20;99.90
61412;DHT22;47278;49.732;7.690;2022-09-12T07:36:02;13.10;99.90
61412;DHT22;47278;49.732;7.690;2022-09-12T07:38:28;13.20;99.90
61412;DHT22;47278;49.732;7.690;2022-09-12T07:40:53;13.20;99.90
61412;DHT22;47278;49.732;7.690;2022-09-12T07:43:19;13.40;99.90
61412;DHT22;47278;49.732;7.690;2022-09-12T07:45:45;13.50;99.90
61412;DHT22;47278;49.732;7.690;2022-09-12T07:48:10;13.50;99.90
61412;DHT22;47278;49.732;7.690;2022-09-12T07:50:36;13.60;99.90
61412;DHT22;47278;49.732;7.690;2022-09-12T07:53:02;13.70;99.90
61412;DHT22;47278;49.732;7.690;2022-09-12T07:55:28;13.70;99.90
61412;DHT22;47278;49.732;7.690;2022-09-12T07:57:54;13.70;99.90
61412;DHT22;47278;49.732;7.690;2022-09-12T08:00:20;13.70;99.90
61412;DHT22;47278;49.732;7.690;2022-09-12T08:02:49;13.80;99.90
61412;DHT22;47278;49.732;7.690;2022-09-12T08:05:14;13.80;99.90
61412;DHT22;47278;49.732;7.690;2022-09-12T08:07:40;13.90;99.90
61412;DHT22;47278;49.732;7.690;2022-09-12T08:10:06;13.90;99.90
61412;DHT22;47278;49.732;7.690;2022-09-12T08:12:31;14.00;99.90
61412;DHT22;47278;49.732;7.690;2022-09-12T08:14:58;14.20;99.90
61412;DHT22;47278;49.732;7.690;2022-09-12T08:17:24;14.30;99.90
61412;DHT22;47278;49.732;7.690;2022-09-12T08:19:50;14.50;99.90
61412;DHT22;47278;49.732;7.690;2022-09-12T08:22:18;14.70;99.90
61412;DHT22;47278;49.732;7.690;2022-09-12T08:24:46;14.90;99.90
61412;DHT22;47278;49.732;7.690;2022-09-12T08:27:12;14.80;99.90
61412;DHT22;47278;49.732;7.690;2022-09-12T08:29:39;15.00;99.90
61412;DHT22;47278;49.732;7.690;2022-09-12T08:32:04;15.10;99.90
61412;DHT22;47278;49.732;7.690;2022-09-12T08:34:30;15.20;99.90
61412;DHT22;47278;49.732;7.690;2022-09-12T08:36:56;15.10;99.90
61412;DHT22;47278;49.732;7.690;2022-09-12T08:39:22;15.20;99.90
61412;DHT22;47278;49.732;7.690;2022-09-12T08:41:54;15.30;99.90
61412;DHT22;47278;49.732;7.690;2022-09-12T08:47:06;15.50;99.90
61412;DHT22;47278;49.732;7.690;2022-09-12T08:49:33;15.60;99.90
61412;DHT22;47278;49.732;7.690;2022-09-12T08:52:10;15.70;99.90
61412;DHT22;47278;49.732;7.690;2022-09-12T08:54:37;15.80;99.90
61412;DHT22;47278;49.732;7.690;2022-09-12T08:57:04;15.90;99.90
61412;DHT22;47278;49.732;7.690;2022-09-12T08:59:31;16.00;99.90
61412;DHT22;47278;49.732;7.690;2022-09-12T09:01:59;15.90;99.90
61412;DHT22;47278;49.732;7.690;2022-09-12T09:04:27;15.90;99.90
61412;DHT22;47278;49.732;7.690;2022-09-12T09:09:45;16.30;99.90
61412;DHT22;47278;49.732;7.690;2022-09-12T09:20:44;16.90;99.90
61412;DHT22;47278;49.732;7.690;2022-09-12T09:23:34;16.70;99.90
61412;DHT22;47278;49.732;7.690;2022-09-12T09:26:05;16.70;99.90
61412;DHT22;47278;49.732;7.690;2022-09-12T09:28:49;16.70;99.90
61412;DHT22;47278;49.732;7.690;2022-09-12T09:31:24;16.70;99.90
61412;DHT22;47278;49.732;7.690;2022-09-12T09:33:53;16.80;99.90
61412;DHT22;47278;49.732;7.690;2022-09-12T09:44:58;17.80;99.90
61412;DHT22;47278;49.732;7.690;2022-09-12T09:47:25;17.70;99.90
61412;DHT22;47278;49.732;7.690;2022-09-12T09:49:51;17.50;99.90
61412;DHT22;47278;49.732;7.690;2022-09-12T09:52:23;17.60;99.90
61412;DHT22;47278;49.732;7.690;2022-09-12T09:54:53;17.90;99.90
61412;DHT22;47278;49.732;7.690;2022-09-12T10:00:26;18.00;99.90
61412;DHT22;47278;49.732;7.690;2022-09-12T10:05:54;18.20;99.90
61412;DHT22;47278;49.732;7.690;2022-09-12T10:08:33;18.50;99.90
61412;DHT22;47278;49.732;7.690;2022-09-12T10:11:02;18.70;99.90
61412;DHT22;47278;49.732;7.690;2022-09-12T10:13:42;18.90;99.90
61412;DHT22;47278;49.732;7.690;2022-09-12T10:16:28;18.80;99.90
61412;DHT22;47278;49.732;7.690;2022-09-12T10:18:56;18.80;99.90
61412;DHT22;47278;49.732;7.690;2022-09-12T10:21:35;19.40;99.90
61412;DHT22;47278;49.732;7.690;2022-09-12T10:29:55;20.70;99.90
61412;DHT22;47278;49.732;7.690;2022-09-12T10:32:39;21.00;99.90
61412;DHT22;47278;49.732;7.690;2022-09-12T10:35:41;21.10;99.90
61412;DHT22;47278;49.732;7.690;2022-09-12T10:38:20;20.60;99.90
61412;DHT22;47278;49.732;7.690;2022-09-12T10:41:00;20.60;99.90
61412;DHT22;47278;49.732;7.690;2022-09-12T10:43:38;20.80;99.90
61412;DHT22;47278;49.732;7.690;2022-09-12T10:48:43;21.40;99.90
61412;DHT22;47278;49.732;7.690;2022-09-12T10:51:26;21.30;99.90
61412;DHT22;47278;49.732;7.690;2022-09-12T10:53:54;21.70;99.90
61412;DHT22;47278;49.732;7.690;2022-09-12T11:08:02;22.10;99.90
61412;DHT22;47278;49.732;7.690;2022-09-12T11:23:49;23.30;99.90
61412;DHT22;47278;49.732;7.690;2022-09-12T11:33:59;24.00;99.90
61412;DHT22;47278;49.732;7.690;2022-09-12T11:41:54;23.30;99.90
61412;DHT22;47278;49.732;7.690;2022-09-12T11:44:22;22.80;99.90
61412;DHT22;47278;49.732;7.690;2022-09-12T11:46:49;22.50;99.90
61412;DHT22;47278;49.732;7.690;2022-09-12T11:51:45;22.70;99.90
61412;DHT22;47278;49.732;7.690;2022-09-12T11:56:40;23.20;99.90
61412;DHT22;47278;49.732;7.690;2022-09-12T12:01:53;23.20;99.90
61412;DHT22;47278;49.732;7.690;2022-09-12T12:04:22;23.70;99.90
61412;DHT22;47278;49.732;7.690;2022-09-12T12:06:50;24.10;99.90
61412;DHT22;47278;49.732;7.690;2022-09-12T12:09:18;24.20;99.90
61412;DHT22;47278;49.732;7.690;2022-09-12T12:11:46;24.20;99.90
61412;DHT22;47278;49.732;7.690;2022-09-12T12:14:17;24.50;99.90
61412;DHT22;47278;49.732;7.690;2022-09-12T12:16:44;24.20;99.90
61412;DHT22;47278;49.732;7.690;2022-09-12T12:26:43;23.10;99.90
61412;DHT22;47278;49.732;7.690;2022-09-12T12:32:20;24.00;99.90
61412;DHT22;47278;49.732;7.690;2022-09-12T12:34:26;24.70;99.90
61412;DHT22;47278;49.732;7.690;2022-09-12T12:36:51;25.10;99.90
61412;DHT22;47278;49.732;7.690;2022-09-12T12:42:01;25.40;99.90
61412;DHT22;47278;49.732;7.690;2022-09-12T12:47:54;24.10;99.90
61412;DHT22;47278;49.732;7.690;2022-09-12T12:49:58;25.50;99.90
61412;DHT22;47278;49.732;7.690;2022-09-12T12:53:00;25.60;99.90
61412;DHT22;47278;49.732;7.690;2022-09-12T12:55:20;25.60;99.90
61412;DHT22;47278;49.732;7.690;2022-09-12T12:57:48;25.90;99.90
61412;DHT22;47278;49.732;7.690;2022-09-12T13:05:24;26.00;99.90
61412;DHT22;47278;49.732;7.690;2022-09-12T13:08:02;26.20;99.90
61412;DHT22;47278;49.732;7.690;2022-09-12T13:10:29;26.10;99.90
61412;DHT22;47278;49.732;7.690;2022-09-12T13:13:02;25.80;99.90
61412;DHT22;47278;49.732;7.690;2022-09-12T13:18:05;26.00;99.90
61412;DHT22;47278;49.732;7.690;2022-09-12T13:20:32;26.20;99.90
61412;DHT22;47278;49.732;7.690;2022-09-12T13:22:59;26.20;99.90
61412;DHT22;47278;49.732;7.690;2022-09-12T13:25:27;26.20;99.90
61412;DHT22;47278;49.732;7.690;2022-09-12T13:28:13;26.10;99.90
61412;DHT22;47278;49.732;7.690;2022-09-12T13:30:44;25.90;99.90
61412;DHT22;47278;49.732;7.690;2022-09-12T13:33:20;25.90;99.90
61412;DHT22;47278;49.732;7.690;2022-09-12T13:40:53;26.90;99.90
61412;DHT22;47278;49.732;7.690;2022-09-12T13:43:23;26.80;99.90
61412;DHT22;47278;49.732;7.690;2022-09-12T13:45:53;26.90;99.90
61412;DHT22;47278;49.732;7.690;2022-09-12T13:48:19;26.80;99.90
61412;DHT22;47278;49.732;7.690;2022-09-12T13:50:59;26.70;99.90
61412;DHT22;47278;49.732;7.690;2022-09-12T13:53:27;26.40;99.90
61412;DHT22;47278;49.732;7.690;2022-09-12T13:55:54;26.70;99.90
61412;DHT22;47278;49.732;7.690;2022-09-12T13:58:22;26.70;99.90
61412;DHT22;47278;49.732;7.690;2022-09-12T14:03:37;27.10;99.90
61412;DHT22;47278;49.732;7.690;2022-09-12T14:06:21;27.00;99.90
61412;DHT22;47278;49.732;7.690;2022-09-12T14:08:50;26.90;99.90
61412;DHT22;47278;49.732;7.690;2022-09-12T14:11:24;26.80;99.90
61412;DHT22;47278;49.732;7.690;2022-09-12T14:13:51;26.40;99.90
61412;DHT22;47278;49.732;7.690;2022-09-12T14:16:18;26.70;99.90
61412;DHT22;47278;49.732;7.690;2022-09-12T14:18:46;26.50;99.90
61412;DHT22;47278;49.732;7.690;2022-09-12T14:21:39;26.50;99.90
61412;DHT22;47278;49.732;7.690;2022-09-12T14:24:06;26.30;99.90
61412;DHT22;47278;49.732;7.690;2022-09-12T14:26:34;26.40;99.90
61412;DHT22;47278;49.732;7.690;2022-09-12T14:29:04;26.90;99.90
61412;DHT22;47278;49.732;7.690;2022-09-12T14:31:32;26.60;99.90
61412;DHT22;47278;49.732;7.690;2022-09-12T14:34:16;26.80;99.90
61412;DHT22;47278;49.732;7.690;2022-09-12T14:36:53;26.80;99.90
61412;DHT22;47278;49.732;7.690;2022-09-12T14:39:41;27.20;99.90
61412;DHT22;47278;49.732;7.690;2022-09-12T14:42:20;27.20;99.90
61412;DHT22;47278;49.732;7.690;2022-09-12T14:44:59;27.30;99.90
61412;DHT22;47278;49.732;7.690;2022-09-12T14:47:27;25.70;99.90
61412;DHT22;47278;49.732;7.690;2022-09-12T14:49:55;27.50;99.90
61412;DHT22;47278;49.732;7.690;2022-09-12T14:52:33;28.00;99.90
61412;DHT22;47278;49.732;7.690;2022-09-12T14:55:49;28.10;99.90
61412;DHT22;47278;49.732;7.690;2022-09-12T15:00:58;30.70;99.90
61412;DHT22;47278;49.732;7.690;2022-09-12T15:03:48;32.30;99.90
61412;DHT22;47278;49.732;7.690;2022-09-12T15:06:37;32.70;99.90
61412;DHT22;47278;49.732;7.690;2022-09-12T15:09:10;32.90;99.90
61412;DHT22;47278;49.732;7.690;2022-09-12T15:11:36;33.90;99.90
61412;DHT22;47278;49.732;7.690;2022-09-12T15:14:21;34.90;99.90
61412;DHT22;47278;49.732;7.690;2022-09-12T15:16:46;35.00;97.90
61412;DHT22;47278;49.732;7.690;2022-09-12T15:19:12;34.50;98.20
61412;DHT22;47278;49.732;7.690;2022-09-12T15:21:38;33.50;99.90
61412;DHT22;47278;49.732;7.690;2022-09-12T15:24:03;32.80;99.90
61412;DHT22;47278;49.732;7.690;2022-09-12T15:26:29;32.40;99.90
61412;DHT22;47278;49.732;7.690;2022-09-12T15:28:55;33.30;99.90
61412;DHT22;47278;49.732;7.690;2022-09-12T15:33:47;33.40;99.90
61412;DHT22;47278;49.732;7.690;2022-09-12T15:36:14;33.90;98.60
61412;DHT22;47278;49.732;7.690;2022-09-12T15:38:41;33.40;97.90
61412;DHT22;47278;49.732;7.690;2022-09-12T15:41:14;34.10;95.70
61412;DHT22;47278;49.732;7.690;2022-09-12T15:43:41;33.70;95.80
61412;DHT22;47278;49.732;7.690;2022-09-12T15:46:10;33.00;97.40
61412;DHT22;47278;49.732;7.690;2022-09-12T15:48:36;33.00;98.10
61412;DHT22;47278;49.732;7.690;2022-09-12T15:51:02;32.70;98.30
61412;DHT22;47278;49.732;7.690;2022-09-12T15:53:29;31.90;98.20
61412;DHT22;47278;49.732;7.690;2022-09-12T15:55:56;31.30;99.00
61412;DHT22;47278;49.732;7.690;2022-09-12T15:58:22;30.90;99.90
61412;DHT22;47278;49.732;7.690;2022-09-12T16:00:47;31.10;99.90
61412;DHT22;47278;49.732;7.690;2022-09-12T16:03:24;30.90;99.90
61412;DHT22;47278;49.732;7.690;2022-09-12T16:05:55;30.50;99.90
61412;DHT22;47278;49.732;7.690;2022-09-12T16:08:21;29.90;99.90
61412;DHT22;47278;49.732;7.690;2022-09-12T16:10:48;29.60;99.90
61412;DHT22;47278;49.732;7.690;2022-09-12T16:13:14;30.10;99.90
61412;DHT22;47278;49.732;7.690;2022-09-12T16:15:40;28.90;99.90
61412;DHT22;47278;49.732;7.690;2022-09-12T16:18:06;28.90;99.90
61412;DHT22;47278;49.732;7.690;2022-09-12T16:20:31;28.10;99.90
61412;DHT22;47278;49.732;7.690;2022-09-12T16:22:57;27.40;99.90
61412;DHT22;47278;49.732;7.690;2022-09-12T16:25:22;26.90;99.90
61412;DHT22;47278;49.732;7.690;2022-09-12T16:27:49;25.50;99.90
61412;DHT22;47278;49.732;7.690;2022-09-12T16:30:15;24.70;99.90
61412;DHT22;47278;49.732;7.690;2022-09-12T16:32:40;24.40;99.90
61412;DHT22;47278;49.732;7.690;2022-09-12T16:35:06;23.50;99.90
61412;DHT22;47278;49.732;7.690;2022-09-12T16:37:32;23.40;99.90
61412;DHT22;47278;49.732;7.690;2022-09-12T16:39:59;23.50;99.90
61412;DHT22;47278;49.732;7.690;2022-09-12T16:42:24;22.70;99.90
61412;DHT22;47278;49.732;7.690;2022-09-12T16:44:50;22.20;99.90
61412;DHT22;47278;49.732;7.690;2022-09-12T16:47:15;22.20;99.90
61412;DHT22;47278;49.732;7.690;2022-09-12T16:49:41;22.10;99.90
61412;DHT22;47278;49.732;7.690;2022-09-12T16:52:07;21.70;99.90
61412;DHT22;47278;49.732;7.690;2022-09-12T16:54:32;21.40;99.90
61412;DHT22;47278;49.732;7.690;2022-09-12T16:56:58;21.20;99.90
61412;DHT22;47278;49.732;7.690;2022-09-12T16:59:24;21.20;99.90
61412;DHT22;47278;49.732;7.690;2022-09-12T17:01:50;21.00;99.90
61412;DHT22;47278;49.732;7.690;2022-09-12T17:04:16;20.60;99.90
61412;DHT22;47278;49.732;7.690;2022-09-12T17:06:41;20.40;99.90
61412;DHT22;47278;49.732;7.690;2022-09-12T17:09:08;20.20;99.90
61412;DHT22;47278;49.732;7.690;2022-09-12T17:11:36;20.10;99.90
61412;DHT22;47278;49.732;7.690;2022-09-12T17:14:02;21.30;99.90
61412;DHT22;47278;49.732;7.690;2022-09-12T17:16:30;20.00;99.90
61412;DHT22;47278;49.732;7.690;2022-09-12T17:18:56;19.90;99.90
61412;DHT22;47278;49.732;7.690;2022-09-12T17:21:21;19.80;99.90
61412;DHT22;47278;49.732;7.690;2022-09-12T17:23:47;19.70;99.90
61412;DHT22;47278;49.732;7.690;2022-09-12T17:26:13;19.50;99.90
61412;DHT22;47278;49.732;7.690;2022-09-12T17:28:39;19.40;99.90
61412;DHT22;47278;49.732;7.690;2022-09-12T17:31:06;19.30;99.90
61412;DHT22;47278;49.732;7.690;2022-09-12T17:33:32;19.10;99.90
61412;DHT22;47278;49.732;7.690;2022-09-12T17:38:34;19.00;99.90
61412;DHT22;47278;49.732;7.690;2022-09-12T17:44:02;18.80;99.90
61412;DHT22;47278;49.732;7.690;2022-09-12T17:46:31;18.70;99.90
61412;DHT22;47278;49.732;7.690;2022-09-12T17:48:59;18.60;99.90
61412;DHT22;47278;49.732;7.690;2022-09-12T17:51:25;18.60;99.90
61412;DHT22;47278;49.732;7.690;2022-09-12T17:53:59;18.50;99.90
61412;DHT22;47278;49.732;7.690;2022-09-12T17:56:26;18.40;99.90
61412;DHT22;47278;49.732;7.690;2022-09-12T17:58:53;18.30;99.90
61412;DHT22;47278;49.732;7.690;2022-09-12T18:01:19;18.20;99.90
61412;DHT22;47278;49.732;7.690;2022-09-12T18:04:03;18.10;99.90
61412;DHT22;47278;49.732;7.690;2022-09-12T18:06:29;18.00;99.90
61412;DHT22;47278;49.732;7.690;2022-09-12T18:08:58;17.90;99.90
61412;DHT22;47278;49.732;7.690;2022-09-12T18:11:23;17.80;99.90
61412;DHT22;47278;49.732;7.690;2022-09-12T18:13:49;17.70;99.90
61412;DHT22;47278;49.732;7.690;2022-09-12T18:16:14;17.70;99.90
61412;DHT22;47278;49.732;7.690;2022-09-12T18:18:40;17.60;99.90
61412;DHT22;47278;49.732;7.690;2022-09-12T18:21:06;17.60;99.90
61412;DHT22;47278;49.732;7.690;2022-09-12T18:23:32;17.50;99.90
61412;DHT22;47278;49.732;7.690;2022-09-12T18:25:59;17.40;99.90
61412;DHT22;47278;49.732;7.690;2022-09-12T18:28:25;17.30;99.90
61412;DHT22;47278;49.732;7.690;2022-09-12T18:30:54;17.30;99.90
61412;DHT22;47278;49.732;7.690;2022-09-12T18:33:19;17.30;99.90
61412;DHT22;47278;49.732;7.690;2022-09-12T18:35:45;17.10;99.90